createdAt,value
2018-02-05T00:01:29.622Z,15.70
2018-02-05T00:03:56.531Z,16.73
2018-02-05T00:06:23.474Z,17.48
2018-02-05T00:08:50.503Z,15.45
2018-02-05T00:11:18.189Z,14.38
2018-02-05T00:13:45.143Z,14.23
2018-02-05T00:16:12.115Z,16.92
2018-02-05T00:18:39.022Z,15.25
2018-02-05T00:21:05.963Z,15.63
2018-02-05T00:23:32.875Z,15.10
2018-02-05T00:25:59.767Z,13.95
2018-02-05T00:28:26.720Z,14.43
2018-02-05T00:30:53.663Z,16.10
2018-02-05T00:33:20.599Z,16.45
2018-02-05T00:35:47.509Z,16.12
2018-02-05T00:38:14.483Z,15.00
2018-02-05T00:40:41.502Z,15.80
2018-02-05T00:43:08.450Z,14.95
2018-02-05T00:45:35.394Z,15.00
2018-02-05T00:48:02.339Z,15.90
2018-02-05T00:50:29.294Z,16.42
2018-02-05T00:52:56.215Z,16.20
2018-02-05T00:55:23.154Z,16.73
2018-02-05T00:57:50.044Z,14.63
2018-02-05T01:00:17.780Z,16.37
2018-02-05T01:02:44.752Z,17.05
2018-02-05T01:05:12.390Z,16.85
2018-02-05T01:07:39.327Z,13.95
2018-02-05T01:10:06.327Z,17.02
2018-02-05T01:12:33.310Z,16.67
2018-02-05T01:15:00.288Z,15.38
2018-02-05T01:17:27.169Z,15.90
2018-02-05T01:19:54.104Z,16.30
2018-02-05T01:22:21.748Z,14.95
2018-02-05T01:24:49.567Z,15.15
2018-02-05T01:27:16.527Z,15.57
2018-02-05T01:29:44.331Z,14.38
2018-02-05T01:32:11.963Z,14.65
2018-02-05T01:34:38.943Z,15.98
2018-02-05T01:37:06.590Z,16.30
2018-02-05T01:39:33.549Z,13.60
2018-02-05T01:42:00.458Z,15.02
2018-02-05T01:44:27.475Z,16.85
2018-02-05T01:46:54.419Z,15.48
2018-02-05T01:49:21.418Z,17.00
2018-02-05T01:51:48.407Z,15.75
2018-02-05T01:54:15.280Z,17.02
2018-02-05T01:56:42.240Z,16.20
2018-02-05T01:59:09.250Z,16.08
2018-02-05T02:01:36.187Z,12.77
2018-02-05T02:04:03.822Z,15.82
2018-02-05T02:06:30.811Z,15.55
2018-02-05T02:08:57.967Z,14.93
2018-02-05T02:11:24.899Z,17.98
2018-02-05T02:13:51.819Z,16.10
2018-02-05T02:16:18.775Z,16.00
2018-02-05T02:18:45.650Z,15.23
2018-02-05T02:21:12.583Z,13.82
2018-02-05T02:23:39.538Z,14.23
2018-02-05T02:26:06.442Z,15.98
2018-02-05T02:28:33.418Z,16.52
2018-02-05T02:31:00.303Z,16.42
2018-02-05T02:33:27.262Z,15.07
2018-02-05T02:35:54.162Z,13.82
2018-02-05T02:38:21.040Z,16.70
2018-02-05T02:40:48.102Z,16.15
2018-02-05T02:43:14.972Z,15.15
2018-02-05T02:45:41.937Z,17.80
2018-02-05T02:48:08.838Z,16.73
2018-02-05T02:50:35.798Z,16.90
2018-02-05T02:53:02.699Z,15.85
2018-02-05T02:55:29.838Z,15.13
2018-02-05T02:57:56.841Z,15.23
2018-02-05T03:00:23.823Z,16.02
2018-02-05T03:02:50.706Z,15.45
2018-02-05T03:05:17.679Z,14.48
2018-02-05T03:07:44.583Z,15.65
2018-02-05T03:10:11.547Z,16.73
2018-02-05T03:12:38.511Z,15.95
2018-02-05T03:15:05.403Z,16.65
2018-02-05T03:17:33.007Z,16.35
2018-02-05T03:19:59.959Z,17.15
2018-02-05T03:22:26.883Z,15.82
2018-02-05T03:24:53.834Z,17.70
2018-02-05T03:27:20.846Z,15.75
2018-02-05T03:29:47.792Z,18.67
2018-02-05T03:32:15.519Z,17.12
2018-02-05T03:34:42.487Z,19.45
2018-02-05T03:37:09.396Z,17.55
2018-02-05T03:39:36.398Z,17.60
2018-02-05T03:42:03.280Z,17.70
2018-02-05T03:44:30.227Z,16.65
2018-02-05T03:46:57.183Z,18.08
2018-02-05T03:49:24.166Z,17.27
2018-02-05T03:51:51.910Z,15.70
2018-02-05T03:54:18.796Z,17.23
2018-02-05T03:56:45.743Z,17.10
2018-02-05T03:59:12.676Z,17.05
2018-02-05T04:01:39.728Z,16.80
2018-02-05T04:04:07.365Z,17.70
2018-02-05T04:06:40.198Z,14.90
2018-02-05T04:09:07.137Z,17.58
2018-02-05T04:11:34.152Z,16.00
2018-02-05T04:14:01.144Z,17.37
2018-02-05T04:16:28.119Z,16.92
2018-02-05T04:18:55.827Z,19.30
2018-02-05T04:21:23.426Z,16.27
2018-02-05T04:23:50.406Z,16.50
2018-02-05T04:26:17.304Z,17.30
2018-02-05T04:28:44.215Z,15.30
2018-02-05T04:31:11.905Z,15.85
2018-02-05T04:33:38.804Z,22.25
2018-02-05T04:36:05.755Z,16.15
2018-02-05T04:38:32.622Z,17.30
2018-02-05T04:41:00.327Z,21.67
2018-02-05T04:43:27.297Z,17.37
2018-02-05T04:45:54.242Z,16.50
2018-02-05T04:48:21.215Z,19.42
2018-02-05T04:50:48.183Z,16.67
2018-02-05T04:53:15.163Z,19.02
2018-02-05T04:55:42.075Z,16.62
2018-02-05T04:58:09.025Z,16.23
2018-02-05T05:00:35.936Z,18.15
2018-02-05T05:03:02.882Z,17.00
2018-02-05T05:05:29.731Z,17.40
2018-02-05T05:07:56.854Z,16.12
2018-02-05T05:10:39.925Z,17.98
2018-02-05T05:13:10.159Z,19.10
2018-02-05T05:15:37.042Z,16.05
2018-02-05T05:18:08.627Z,17.77
2018-02-05T05:20:35.550Z,16.37
2018-02-05T05:23:02.533Z,15.73
2018-02-05T05:25:43.476Z,16.10
2018-02-05T05:28:12.220Z,17.90
2018-02-05T05:30:42.224Z,18.25
2018-02-05T05:33:09.252Z,19.85
2018-02-05T05:35:36.158Z,19.75
2018-02-05T05:38:03.043Z,19.02
2018-02-05T05:43:21.296Z,15.73
2018-02-05T05:45:48.736Z,18.98
2018-02-05T05:48:15.643Z,17.17
2018-02-05T05:50:43.425Z,17.23
2018-02-05T05:53:10.391Z,15.93
2018-02-05T05:55:37.338Z,17.73
2018-02-05T05:58:04.622Z,16.80
2018-02-05T06:00:31.625Z,16.77
2018-02-05T06:02:58.601Z,17.23
2018-02-05T06:05:25.551Z,17.77
2018-02-05T06:07:52.532Z,16.80
2018-02-05T06:10:20.334Z,16.83
2018-02-05T06:12:47.278Z,17.25
2018-02-05T06:15:14.166Z,18.08
2018-02-05T06:17:41.132Z,15.68
2018-02-05T06:20:08.862Z,21.45
2018-02-05T06:22:36.058Z,20.35
2018-02-05T06:25:03.660Z,23.58
2018-02-05T06:27:30.543Z,20.80
2018-02-05T06:30:03.176Z,19.25
2018-02-05T06:32:30.599Z,20.17
2018-02-05T06:34:58.315Z,21.95
2018-02-05T06:37:37.954Z,22.02
2018-02-05T06:40:06.834Z,21.02
2018-02-05T06:42:33.812Z,19.05
2018-02-05T06:45:00.727Z,20.65
2018-02-05T06:47:27.677Z,19.67
2018-02-05T06:49:54.546Z,16.95
2018-02-05T06:52:33.602Z,19.05
2018-02-05T06:55:22.876Z,18.23
2018-02-05T06:57:50.626Z,17.83
2018-02-05T07:00:18.048Z,17.55
2018-02-05T07:02:45.016Z,20.00
2018-02-05T07:05:11.980Z,19.98
2018-02-05T07:07:38.935Z,17.48
2018-02-05T07:10:05.829Z,18.92
2018-02-05T07:12:32.799Z,18.98
2018-02-05T07:14:59.756Z,16.98
2018-02-05T07:17:26.663Z,15.52
2018-02-05T07:19:53.626Z,18.45
2018-02-05T07:22:21.360Z,20.70
2018-02-05T07:24:48.323Z,19.35
2018-02-05T07:27:15.267Z,17.70
2018-02-05T07:29:42.262Z,18.60
2018-02-05T07:32:10.004Z,19.02
2018-02-05T07:34:36.965Z,18.85
2018-02-05T07:37:03.924Z,18.08
2018-02-05T07:39:30.864Z,19.02
2018-02-05T07:41:57.807Z,19.37
2018-02-05T07:44:24.855Z,19.33
2018-02-05T07:46:52.241Z,19.58
2018-02-05T07:49:19.140Z,19.67
2018-02-05T07:51:46.968Z,19.02
2018-02-05T07:54:13.939Z,17.85
2018-02-05T07:56:40.844Z,18.73
2018-02-05T07:59:07.793Z,18.98
2018-02-05T08:01:34.915Z,18.70
2018-02-05T08:04:01.830Z,14.40
2018-02-05T08:06:28.796Z,17.70
2018-02-05T08:08:55.707Z,17.30
2018-02-05T08:11:22.653Z,15.60
2018-02-05T08:13:49.784Z,14.43
2018-02-05T08:16:16.723Z,17.00
2018-02-05T08:18:43.680Z,14.90
2018-02-05T08:21:10.568Z,19.45
2018-02-05T08:23:37.518Z,15.43
2018-02-05T08:26:04.486Z,15.02
2018-02-05T08:28:46.259Z,15.90
2018-02-05T08:31:14.414Z,15.00
2018-02-05T08:33:42.175Z,17.37
2018-02-05T08:36:09.055Z,15.60
2018-02-05T08:38:36.024Z,16.80
2018-02-05T08:41:04.108Z,15.43
2018-02-05T08:43:37.304Z,14.27
2018-02-05T08:46:05.151Z,12.93
2018-02-05T08:48:32.840Z,12.40
2018-02-05T08:50:59.710Z,15.07
2018-02-05T08:53:26.696Z,16.77
2018-02-05T08:55:53.676Z,15.70
2018-02-05T08:58:20.614Z,15.40
2018-02-05T09:00:47.596Z,13.43
2018-02-05T09:03:14.491Z,14.30
2018-02-05T09:05:42.218Z,14.10
2018-02-05T09:08:09.159Z,15.30
2018-02-05T09:10:36.098Z,14.53
2018-02-05T09:13:03.051Z,15.50
2018-02-05T09:15:30.013Z,16.30
2018-02-05T09:17:56.888Z,16.60
2018-02-05T09:20:24.596Z,16.00
2018-02-05T09:22:51.564Z,14.23
2018-02-05T09:25:18.487Z,16.33
2018-02-05T09:27:45.444Z,17.30
2018-02-05T09:30:12.481Z,16.42
2018-02-05T09:32:39.435Z,14.45
2018-02-05T09:35:06.324Z,13.38
2018-02-05T09:37:33.279Z,16.10
2018-02-05T09:40:00.907Z,14.35
2018-02-05T09:42:27.882Z,15.25
2018-02-05T09:44:54.765Z,14.00
2018-02-05T09:47:21.680Z,12.90
2018-02-05T09:49:49.388Z,14.10
2018-02-05T09:52:16.302Z,12.35
2018-02-05T09:54:43.318Z,12.70
2018-02-05T09:57:10.210Z,12.93
2018-02-05T09:59:37.227Z,11.32
2018-02-05T10:02:04.842Z,12.07
2018-02-05T10:04:31.803Z,12.35
2018-02-05T10:06:58.827Z,11.25
2018-02-05T10:09:25.810Z,11.48
2018-02-05T10:11:52.706Z,10.52
2018-02-05T10:14:19.611Z,12.25
2018-02-05T10:16:46.567Z,11.12
2018-02-05T10:19:14.277Z,13.15
2018-02-05T10:21:41.256Z,11.65
2018-02-05T10:24:08.203Z,11.88
2018-02-05T10:26:35.089Z,11.12
2018-02-05T10:29:02.058Z,9.57
2018-02-05T10:31:28.998Z,10.40
2018-02-05T10:33:55.959Z,10.23
2018-02-05T10:36:22.986Z,10.90
2018-02-05T10:38:49.859Z,10.35
2018-02-05T10:41:16.806Z,11.30
2018-02-05T10:43:43.684Z,10.23
2018-02-05T10:46:11.317Z,9.82
2018-02-05T10:48:38.322Z,9.32
2018-02-05T10:51:05.294Z,8.80
2018-02-05T10:53:32.200Z,8.95
2018-02-05T10:55:59.904Z,9.05
2018-02-05T10:58:26.888Z,10.43
2018-02-05T11:00:53.843Z,10.40
2018-02-05T11:03:20.747Z,10.13
2018-02-05T11:05:48.619Z,9.02
2018-02-05T11:08:15.545Z,8.68
2018-02-05T11:10:44.112Z,7.97
2018-02-05T11:13:15.580Z,7.87
2018-02-05T11:15:44.286Z,7.45
2018-02-05T11:18:12.197Z,7.07
2018-02-05T11:20:39.261Z,7.75
2018-02-05T11:23:10.574Z,7.90
2018-02-05T11:25:37.465Z,7.05
2018-02-05T11:28:08.891Z,6.43
2018-02-05T11:30:38.628Z,6.65
2018-02-05T11:33:05.722Z,6.85
2018-02-05T11:35:33.398Z,6.12
2018-02-05T11:38:00.454Z,7.95
2018-02-05T11:40:31.776Z,5.50
2018-02-05T11:43:00.810Z,5.90
2018-02-05T11:45:27.764Z,5.37
2018-02-05T11:47:59.877Z,5.62
2018-02-05T11:50:26.959Z,6.20
2018-02-05T11:52:53.852Z,5.57
2018-02-05T11:55:20.807Z,7.22
2018-02-05T11:57:47.788Z,5.43
2018-02-05T12:00:17.034Z,5.37
2018-02-05T12:02:44.237Z,5.40
2018-02-05T12:05:16.014Z,6.70
2018-02-05T12:07:45.308Z,6.85
2018-02-05T12:10:12.284Z,5.28
2018-02-05T12:12:39.937Z,6.15
2018-02-05T12:15:11.187Z,5.82
2018-02-05T12:17:38.841Z,5.65
2018-02-05T12:20:06.264Z,5.85
2018-02-05T12:22:37.463Z,4.93
2018-02-05T12:25:09.504Z,5.80
2018-02-05T12:27:40.736Z,6.50
2018-02-05T12:30:08.047Z,5.95
2018-02-05T12:32:34.964Z,7.20
2018-02-05T12:35:03.191Z,6.97
2018-02-05T12:37:30.130Z,6.43
2018-02-05T12:39:57.294Z,7.12
2018-02-05T12:42:24.438Z,5.78
2018-02-05T12:44:51.420Z,7.15
2018-02-05T12:47:18.357Z,7.00
2018-02-05T12:49:45.479Z,5.80
2018-02-05T12:52:12.440Z,7.30
2018-02-05T12:54:39.385Z,6.93
2018-02-05T12:57:06.731Z,6.65
2018-02-05T12:59:33.674Z,6.75
2018-02-05T13:02:09.481Z,5.45
2018-02-05T13:04:58.929Z,7.12
2018-02-05T13:07:26.241Z,7.53
2018-02-05T13:09:53.183Z,6.65
2018-02-05T13:12:20.136Z,6.10
2018-02-05T13:14:47.057Z,6.60
2018-02-05T13:17:15.375Z,7.07
2018-02-05T13:19:42.664Z,7.78
2018-02-05T13:22:10.442Z,5.87
2018-02-05T13:24:37.395Z,6.65
2018-02-05T13:27:05.675Z,6.65
2018-02-05T13:29:33.358Z,8.90
2018-02-05T13:32:03.629Z,7.25
2018-02-05T13:34:31.072Z,6.28
2018-02-05T13:36:59.351Z,7.55
2018-02-05T13:39:30.393Z,8.15
2018-02-05T13:41:57.300Z,6.05
2018-02-05T13:44:35.272Z,6.07
2018-02-05T13:47:02.667Z,6.15
2018-02-05T13:49:38.370Z,5.95
2018-02-05T13:52:16.274Z,7.05
2018-02-05T13:54:50.870Z,6.10
2018-02-05T13:57:28.013Z,8.85
2018-02-05T14:00:01.222Z,6.70
2018-02-05T14:02:28.576Z,6.40
2018-02-05T14:04:56.232Z,6.68
2018-02-05T14:07:25.375Z,5.93
2018-02-05T14:09:52.318Z,8.80
2018-02-05T14:12:19.239Z,5.47
2018-02-05T14:14:46.180Z,7.00
2018-02-05T14:17:13.060Z,5.22
2018-02-05T14:19:39.994Z,4.68
2018-02-05T14:22:14.595Z,7.12
2018-02-05T14:24:56.764Z,5.60
2018-02-05T14:27:24.286Z,6.50
2018-02-05T14:29:53.629Z,5.75
2018-02-05T14:32:20.519Z,5.30
2018-02-05T14:34:51.100Z,5.07
2018-02-05T14:37:19.837Z,5.72
2018-02-05T14:39:52.326Z,7.22
2018-02-05T14:42:19.307Z,5.70
2018-02-05T14:44:47.907Z,7.82
2018-02-05T14:47:16.193Z,9.70
2018-02-05T14:49:45.587Z,7.70
2018-02-05T14:52:12.525Z,7.35
2018-02-05T14:54:39.408Z,6.87
2018-02-05T14:57:08.035Z,6.53
2018-02-05T14:59:36.796Z,8.07
2018-02-05T15:02:04.210Z,6.30
2018-02-05T15:04:31.966Z,6.10
2018-02-05T15:06:58.906Z,8.27
2018-02-05T15:09:25.861Z,7.00
2018-02-05T15:11:52.751Z,7.32
2018-02-05T15:14:19.626Z,7.55
2018-02-05T15:16:46.748Z,9.52
2018-02-05T15:19:16.375Z,7.65
2018-02-05T15:21:43.333Z,8.93
2018-02-05T15:24:10.276Z,7.87
2018-02-05T15:26:37.143Z,8.32
2018-02-05T15:29:04.091Z,9.85
2018-02-05T15:31:30.968Z,7.78
2018-02-05T15:33:58.075Z,8.05
2018-02-05T15:36:25.023Z,9.45
2018-02-05T15:38:51.967Z,8.50
2018-02-05T15:41:18.995Z,8.73
2018-02-05T15:43:45.888Z,8.15
2018-02-05T15:46:13.622Z,7.47
2018-02-05T15:48:40.487Z,7.65
2018-02-05T15:51:07.414Z,6.70
2018-02-05T15:53:35.336Z,9.23
2018-02-05T15:56:02.488Z,9.50
2018-02-05T15:58:31.849Z,9.68
2018-02-05T16:01:02.083Z,8.77
2018-02-05T16:03:36.008Z,8.48
2018-02-05T16:06:03.452Z,8.32
2018-02-05T16:08:40.368Z,6.87
2018-02-05T16:11:20.555Z,8.32
2018-02-05T16:16:40.396Z,8.07
2018-02-05T16:21:55.871Z,10.63
2018-02-05T16:24:35.574Z,8.88
2018-02-05T16:27:12.239Z,10.32
2018-02-05T16:29:43.556Z,11.50
2018-02-05T16:32:11.936Z,11.63
2018-02-05T16:34:46.369Z,9.88
2018-02-05T16:37:20.397Z,9.43
2018-02-05T16:39:49.764Z,9.70
2018-02-05T16:42:17.060Z,7.68
2018-02-05T16:44:45.971Z,8.85
2018-02-05T16:47:12.926Z,7.80
2018-02-05T16:49:40.790Z,7.72
2018-02-05T16:52:07.810Z,8.55
2018-02-05T16:54:34.791Z,8.65
2018-02-05T16:57:01.664Z,8.02
2018-02-05T16:59:28.663Z,9.02
2018-02-05T17:01:55.815Z,9.82
2018-02-05T17:04:22.769Z,11.20
2018-02-05T17:06:49.659Z,9.95
2018-02-05T17:09:16.653Z,10.20
2018-02-05T17:11:54.743Z,9.73
2018-02-05T17:14:22.647Z,10.30
2018-02-05T17:16:49.560Z,9.48
2018-02-05T17:19:16.509Z,8.48
2018-02-05T17:21:43.396Z,10.40
2018-02-05T17:24:10.332Z,13.00
2018-02-05T17:26:37.215Z,10.13
2018-02-05T17:29:04.112Z,7.97
2018-02-05T17:31:31.115Z,9.32
2018-02-05T17:34:05.665Z,10.15
2018-02-05T17:36:37.407Z,9.77
2018-02-05T17:39:04.586Z,10.93
2018-02-05T17:41:32.230Z,16.12
2018-02-05T17:43:59.830Z,11.70
2018-02-05T17:46:27.251Z,9.20
2018-02-05T17:48:55.739Z,11.00
2018-02-05T17:51:27.224Z,10.10
2018-02-05T17:53:55.521Z,12.45
2018-02-05T17:56:35.503Z,10.52
2018-02-05T17:59:11.955Z,13.27
2018-02-05T18:01:38.843Z,12.70
2018-02-05T18:04:05.842Z,11.70
2018-02-05T18:06:32.743Z,12.32
2018-02-05T18:08:59.859Z,12.98
2018-02-05T18:11:27.478Z,13.98
2018-02-05T18:13:54.431Z,12.73
2018-02-05T18:16:21.420Z,15.80
2018-02-05T18:18:49.134Z,13.30
2018-02-05T18:21:15.996Z,14.68
2018-02-05T18:23:42.893Z,13.40
2018-02-05T18:26:09.907Z,11.95
2018-02-05T18:28:36.763Z,11.55
2018-02-05T18:31:03.751Z,12.57
2018-02-05T18:33:30.830Z,12.63
2018-02-05T18:35:57.787Z,13.65
2018-02-05T18:38:25.072Z,10.73
2018-02-05T18:40:53.767Z,12.35
2018-02-05T18:43:21.517Z,13.90
2018-02-05T18:45:50.110Z,11.63
2018-02-05T18:48:25.756Z,13.43
2018-02-05T18:50:58.701Z,14.32
2018-02-05T18:53:27.290Z,12.60
2018-02-05T18:56:00.129Z,12.20
2018-02-05T18:58:29.293Z,13.48
2018-02-05T19:00:57.533Z,15.05
2018-02-05T19:03:25.386Z,13.05
2018-02-05T19:05:52.436Z,13.10
2018-02-05T19:08:19.490Z,15.55
2018-02-05T19:10:46.532Z,14.20
2018-02-05T19:13:19.094Z,10.73
2018-02-05T19:15:46.192Z,11.43
2018-02-05T19:18:13.291Z,12.48
2018-02-05T19:20:41.035Z,13.62
2018-02-05T19:23:11.611Z,13.65
2018-02-05T19:25:39.206Z,14.48
2018-02-05T19:28:07.041Z,13.65
2018-02-05T19:30:34.235Z,12.90
2018-02-05T19:33:01.265Z,12.80
2018-02-05T19:35:28.338Z,12.93
2018-02-05T19:37:56.124Z,11.20
2018-02-05T19:40:24.513Z,12.40
2018-02-05T19:42:55.240Z,13.68
2018-02-05T19:45:30.299Z,14.50
2018-02-05T19:47:57.680Z,15.23
2018-02-05T19:50:27.423Z,15.32
2018-02-05T19:53:02.532Z,12.07
2018-02-05T19:55:29.433Z,13.07
2018-02-05T19:58:02.232Z,12.85
2018-02-05T20:00:29.276Z,14.20
2018-02-05T20:02:56.317Z,15.90
2018-02-05T20:05:38.006Z,12.55
2018-02-05T20:08:17.337Z,13.93
2018-02-05T20:10:45.166Z,12.80
2018-02-05T20:13:12.163Z,10.63
2018-02-05T20:15:52.066Z,14.70
2018-02-05T20:18:31.318Z,14.52
2018-02-05T20:21:08.424Z,14.13
2018-02-05T20:23:36.575Z,15.40
2018-02-05T20:26:03.618Z,15.25
2018-02-05T20:28:41.752Z,16.58
2018-02-05T20:31:23.282Z,16.83
2018-02-05T20:34:02.757Z,15.35
2018-02-05T20:36:44.246Z,16.58
2018-02-05T20:39:12.333Z,16.42
2018-02-05T20:41:41.959Z,17.30
2018-02-05T20:44:09.107Z,16.25
2018-02-05T20:46:37.455Z,16.08
2018-02-05T20:49:15.842Z,17.02
2018-02-05T20:51:44.831Z,16.50
2018-02-05T20:54:11.807Z,17.52
2018-02-05T20:56:49.565Z,17.75
2018-02-05T20:59:29.828Z,15.98
2018-02-05T21:01:58.559Z,18.52
2018-02-05T21:04:33.175Z,20.50
2018-02-05T21:07:01.976Z,17.02
2018-02-05T21:09:29.194Z,15.00
2018-02-05T21:12:04.670Z,17.12
2018-02-05T21:14:31.723Z,18.05
2018-02-05T21:16:59.225Z,16.87
2018-02-05T21:19:37.486Z,16.75
2018-02-05T21:22:06.983Z,17.08
2018-02-05T21:24:38.408Z,18.33
2018-02-05T21:27:13.796Z,17.83
2018-02-05T21:29:45.966Z,16.58
2018-02-05T21:32:13.248Z,15.63
2018-02-05T21:34:40.724Z,17.25
2018-02-05T21:37:14.041Z,17.05
2018-02-05T21:39:48.760Z,16.40
2018-02-05T21:42:21.554Z,18.50
2018-02-05T21:44:50.528Z,16.40
2018-02-05T21:47:17.690Z,15.68
2018-02-05T21:49:53.054Z,17.52
2018-02-05T21:52:20.024Z,18.25
2018-02-05T21:54:48.985Z,17.60
2018-02-05T21:57:16.001Z,16.87
2018-02-05T21:59:42.942Z,17.80
2018-02-05T22:02:11.257Z,18.20
2018-02-05T22:04:39.509Z,17.23
2018-02-05T22:07:06.970Z,17.87
2018-02-05T22:09:34.057Z,16.15
2018-02-05T22:12:02.573Z,15.32
2018-02-05T22:14:29.598Z,16.17
2018-02-05T22:16:58.523Z,16.52
2018-02-05T22:19:28.423Z,16.70
2018-02-05T22:21:58.747Z,19.60
2018-02-05T22:24:29.143Z,15.70
2018-02-05T22:26:59.782Z,17.75
2018-02-05T22:29:29.828Z,19.42
2018-02-05T22:32:00.011Z,17.67
2018-02-05T22:34:27.344Z,16.62
2018-02-05T22:36:57.979Z,18.70
2018-02-05T22:39:27.584Z,16.90
2018-02-05T22:41:57.721Z,16.85
2018-02-05T22:44:27.682Z,15.93
2018-02-05T22:46:56.638Z,17.00
2018-02-05T22:49:26.498Z,18.10
2018-02-05T22:51:55.762Z,17.25
2018-02-05T22:54:25.995Z,18.52
2018-02-05T22:56:58.543Z,17.98
2018-02-05T22:59:37.420Z,17.10
2018-02-05T23:02:17.119Z,15.88
2018-02-05T23:04:58.577Z,17.37
2018-02-05T23:07:26.429Z,16.45
2018-02-05T23:09:54.034Z,15.88
2018-02-05T23:12:20.966Z,16.02
2018-02-05T23:14:47.950Z,17.00
2018-02-05T23:17:21.747Z,17.45
2018-02-05T23:19:49.621Z,16.35
2018-02-05T23:22:16.587Z,17.30
2018-02-05T23:24:43.592Z,16.50
2018-02-05T23:27:10.538Z,17.50
2018-02-05T23:29:37.482Z,19.42
2018-02-05T23:32:04.430Z,17.60
2018-02-05T23:34:31.375Z,16.58
2018-02-05T23:36:58.291Z,15.43
2018-02-05T23:39:26.030Z,17.52
2018-02-05T23:41:52.897Z,17.90
2018-02-05T23:44:20.712Z,17.65
2018-02-05T23:46:47.583Z,16.75
2018-02-05T23:49:14.499Z,17.27
2018-02-05T23:51:41.445Z,17.73
2018-02-05T23:54:08.423Z,18.08
2018-02-05T23:56:35.388Z,17.50
2018-02-05T23:59:03.123Z,15.82
